sensor_id;sensor_type;location;lat;lon;timestamp;temperature;humidity
12329;DHT22;6230;52.390;10.256;2024-02-26T00:01:23;8.20;61.90
12329;DHT22;6230;52.390;10.256;2024-02-26T00:03:49;8.20;62.00
12329;DHT22;6230;52.390;10.256;2024-02-26T00:06:14;8.20;62.00
12329;DHT22;6230;52.390;10.256;2024-02-26T00:08:40;8.20;62.00
12329;DHT22;6230;52.390;10.256;2024-02-26T00:11:05;8.20;62.00
12329;DHT22;6230;52.390;10.256;2024-02-26T00:13:31;8.20;61.90
12329;DHT22;6230;52.390;10.256;2024-02-26T00:15:56;8.20;62.00
12329;DHT22;6230;52.390;10.256;2024-02-26T00:18:22;8.10;61.90
12329;DHT22;6230;52.390;10.256;2024-02-26T00:20:48;8.10;61.90
12329;DHT22;6230;52.390;10.256;2024-02-26T00:23:15;8.10;61.90
12329;DHT22;6230;52.390;10.256;2024-02-26T00:25:41;8.10;62.00
12329;DHT22;6230;52.390;10.256;2024-02-26T00:28:08;8.10;61.90
12329;DHT22;6230;52.390;10.256;2024-02-26T00:30:33;8.10;61.90
12329;DHT22;6230;52.390;10.256;2024-02-26T00:32:59;8.10;61.90
12329;DHT22;6230;52.390;10.256;2024-02-26T00:35:24;8.10;62.60
12329;DHT22;6230;52.390;10.256;2024-02-26T00:37:50;8.10;61.80
12329;DHT22;6230;52.390;10.256;2024-02-26T00:40:16;8.10;61.80
12329;DHT22;6230;52.390;10.256;2024-02-26T00:42:41;8.10;61.80
12329;DHT22;6230;52.390;10.256;2024-02-26T00:45:14;8.10;61.80
12329;DHT22;6230;52.390;10.256;2024-02-26T00:47:39;8.10;61.80
12329;DHT22;6230;52.390;10.256;2024-02-26T00:50:10;8.00;61.90
12329;DHT22;6230;52.390;10.256;2024-02-26T00:52:35;8.00;62.00
12329;DHT22;6230;52.390;10.256;2024-02-26T00:55:02;7.90;62.10
12329;DHT22;6230;52.390;10.256;2024-02-26T00:57:28;7.90;62.20
12329;DHT22;6230;52.390;10.256;2024-02-26T00:59:53;7.90;62.30
12329;DHT22;6230;52.390;10.256;2024-02-26T01:02:21;7.90;62.40
12329;DHT22;6230;52.390;10.256;2024-02-26T01:04:47;7.90;62.40
12329;DHT22;6230;52.390;10.256;2024-02-26T01:07:13;7.80;62.30
12329;DHT22;6230;52.390;10.256;2024-02-26T01:09:38;7.80;62.40
12329;DHT22;6230;52.390;10.256;2024-02-26T01:12:04;7.80;62.50
12329;DHT22;6230;52.390;10.256;2024-02-26T01:14:29;7.80;62.50
12329;DHT22;6230;52.390;10.256;2024-02-26T01:16:55;7.80;62.50
12329;DHT22;6230;52.390;10.256;2024-02-26T01:19:21;7.70;62.50
12329;DHT22;6230;52.390;10.256;2024-02-26T01:21:46;7.70;62.60
12329;DHT22;6230;52.390;10.256;2024-02-26T01:24:12;7.70;62.70
12329;DHT22;6230;52.390;10.256;2024-02-26T01:26:38;7.70;62.80
12329;DHT22;6230;52.390;10.256;2024-02-26T01:29:03;7.60;62.70
12329;DHT22;6230;52.390;10.256;2024-02-26T01:31:29;7.60;62.70
12329;DHT22;6230;52.390;10.256;2024-02-26T01:33:54;7.60;62.80
12329;DHT22;6230;52.390;10.256;2024-02-26T01:36:20;7.60;62.80
12329;DHT22;6230;52.390;10.256;2024-02-26T01:38:46;7.50;62.80
12329;DHT22;6230;52.390;10.256;2024-02-26T01:41:13;7.50;62.90
12329;DHT22;6230;52.390;10.256;2024-02-26T01:43:39;7.50;62.90
12329;DHT22;6230;52.390;10.256;2024-02-26T01:46:05;7.50;62.90
12329;DHT22;6230;52.390;10.256;2024-02-26T01:48:31;7.50;63.80
12329;DHT22;6230;52.390;10.256;2024-02-26T01:50:57;7.50;63.00
12329;DHT22;6230;52.390;10.256;2024-02-26T01:53:23;7.50;63.00
12329;DHT22;6230;52.390;10.256;2024-02-26T01:55:49;7.40;62.90
12329;DHT22;6230;52.390;10.256;2024-02-26T01:58:15;7.40;62.90
12329;DHT22;6230;52.390;10.256;2024-02-26T02:00:41;7.40;63.00
12329;DHT22;6230;52.390;10.256;2024-02-26T02:03:07;7.40;62.90
12329;DHT22;6230;52.390;10.256;2024-02-26T02:05:33;7.40;63.00
12329;DHT22;6230;52.390;10.256;2024-02-26T02:08:00;7.40;63.00
12329;DHT22;6230;52.390;10.256;2024-02-26T02:10:26;7.40;63.00
12329;DHT22;6230;52.390;10.256;2024-02-26T02:12:53;7.40;63.00
12329;DHT22;6230;52.390;10.256;2024-02-26T02:15:19;7.40;63.00
12329;DHT22;6230;52.390;10.256;2024-02-26T02:17:45;7.40;62.90
12329;DHT22;6230;52.390;10.256;2024-02-26T02:20:16;7.40;62.90
12329;DHT22;6230;52.390;10.256;2024-02-26T02:22:43;7.50;63.00
12329;DHT22;6230;52.390;10.256;2024-02-26T02:25:08;7.50;63.00
12329;DHT22;6230;52.390;10.256;2024-02-26T02:27:34;7.40;62.90
12329;DHT22;6230;52.390;10.256;2024-02-26T02:30:00;7.40;62.90
12329;DHT22;6230;52.390;10.256;2024-02-26T02:32:26;7.40;62.90
12329;DHT22;6230;52.390;10.256;2024-02-26T02:34:53;7.40;63.00
12329;DHT22;6230;52.390;10.256;2024-02-26T02:37:18;7.40;63.00
12329;DHT22;6230;52.390;10.256;2024-02-26T02:39:44;7.40;63.00
12329;DHT22;6230;52.390;10.256;2024-02-26T02:42:10;7.40;63.00
12329;DHT22;6230;52.390;10.256;2024-02-26T02:44:36;7.40;62.90
12329;DHT22;6230;52.390;10.256;2024-02-26T02:47:01;7.50;63.00
12329;DHT22;6230;52.390;10.256;2024-02-26T02:49:27;7.50;63.00
12329;DHT22;6230;52.390;10.256;2024-02-26T02:51:52;7.50;63.00
12329;DHT22;6230;52.390;10.256;2024-02-26T02:54:20;7.50;63.00
12329;DHT22;6230;52.390;10.256;2024-02-26T02:56:45;7.50;62.90
12329;DHT22;6230;52.390;10.256;2024-02-26T02:59:11;7.50;62.90
12329;DHT22;6230;52.390;10.256;2024-02-26T03:01:36;7.50;62.90
12329;DHT22;6230;52.390;10.256;2024-02-26T03:04:02;7.50;63.00
12329;DHT22;6230;52.390;10.256;2024-02-26T03:06:28;7.50;63.00
12329;DHT22;6230;52.390;10.256;2024-02-26T03:08:54;7.40;63.00
12329;DHT22;6230;52.390;10.256;2024-02-26T03:11:20;7.40;63.00
12329;DHT22;6230;52.390;10.256;2024-02-26T03:13:46;7.40;63.00
12329;DHT22;6230;52.390;10.256;2024-02-26T03:16:11;7.50;63.10
12329;DHT22;6230;52.390;10.256;2024-02-26T03:18:40;7.40;63.10
12329;DHT22;6230;52.390;10.256;2024-02-26T03:21:06;7.40;63.00
12329;DHT22;6230;52.390;10.256;2024-02-26T03:23:32;7.40;63.00
12329;DHT22;6230;52.390;10.256;2024-02-26T03:26:04;7.40;63.10
12329;DHT22;6230;52.390;10.256;2024-02-26T03:28:30;7.40;63.00
12329;DHT22;6230;52.390;10.256;2024-02-26T03:30:59;7.40;63.10
12329;DHT22;6230;52.390;10.256;2024-02-26T03:33:24;7.40;63.10
12329;DHT22;6230;52.390;10.256;2024-02-26T03:35:50;7.40;63.10
12329;DHT22;6230;52.390;10.256;2024-02-26T03:38:16;7.40;63.10
12329;DHT22;6230;52.390;10.256;2024-02-26T03:40:41;7.40;63.10
12329;DHT22;6230;52.390;10.256;2024-02-26T03:43:07;7.30;63.10
12329;DHT22;6230;52.390;10.256;2024-02-26T03:45:33;7.30;63.20
12329;DHT22;6230;52.390;10.256;2024-02-26T03:47:59;7.30;63.20
12329;DHT22;6230;52.390;10.256;2024-02-26T03:50:24;7.30;63.30
12329;DHT22;6230;52.390;10.256;2024-02-26T03:52:50;7.30;63.30
12329;DHT22;6230;52.390;10.256;2024-02-26T03:55:16;7.30;63.30
12329;DHT22;6230;52.390;10.256;2024-02-26T03:57:46;7.30;63.20
12329;DHT22;6230;52.390;10.256;2024-02-26T04:00:12;7.20;63.20
12329;DHT22;6230;52.390;10.256;2024-02-26T04:02:38;7.20;63.30
12329;DHT22;6230;52.390;10.256;2024-02-26T04:05:04;7.20;63.30
12329;DHT22;6230;52.390;10.256;2024-02-26T04:07:29;7.20;63.40
12329;DHT22;6230;52.390;10.256;2024-02-26T04:09:55;7.10;63.30
12329;DHT22;6230;52.390;10.256;2024-02-26T04:12:20;7.10;63.30
12329;DHT22;6230;52.390;10.256;2024-02-26T04:14:46;7.10;63.40
12329;DHT22;6230;52.390;10.256;2024-02-26T04:17:12;7.20;63.40
12329;DHT22;6230;52.390;10.256;2024-02-26T04:19:37;7.10;63.30
12329;DHT22;6230;52.390;10.256;2024-02-26T04:22:03;7.20;63.40
12329;DHT22;6230;52.390;10.256;2024-02-26T04:24:28;7.20;63.40
12329;DHT22;6230;52.390;10.256;2024-02-26T04:26:54;7.20;63.30
12329;DHT22;6230;52.390;10.256;2024-02-26T04:29:20;7.20;63.30
12329;DHT22;6230;52.390;10.256;2024-02-26T04:31:45;7.20;63.20
12329;DHT22;6230;52.390;10.256;2024-02-26T04:34:12;7.20;63.20
12329;DHT22;6230;52.390;10.256;2024-02-26T04:36:37;7.20;63.20
12329;DHT22;6230;52.390;10.256;2024-02-26T04:39:03;7.20;63.20
12329;DHT22;6230;52.390;10.256;2024-02-26T04:41:29;7.20;63.20
12329;DHT22;6230;52.390;10.256;2024-02-26T04:43:54;7.20;63.20
12329;DHT22;6230;52.390;10.256;2024-02-26T04:46:20;7.20;63.30
12329;DHT22;6230;52.390;10.256;2024-02-26T04:48:47;7.20;63.30
12329;DHT22;6230;52.390;10.256;2024-02-26T04:51:13;7.20;63.30
12329;DHT22;6230;52.390;10.256;2024-02-26T04:53:38;7.20;63.30
12329;DHT22;6230;52.390;10.256;2024-02-26T04:56:04;7.20;63.30
12329;DHT22;6230;52.390;10.256;2024-02-26T04:58:30;7.20;63.30
12329;DHT22;6230;52.390;10.256;2024-02-26T05:00:55;7.10;63.20
12329;DHT22;6230;52.390;10.256;2024-02-26T05:03:21;7.10;63.30
12329;DHT22;6230;52.390;10.256;2024-02-26T05:05:47;7.10;63.40
12329;DHT22;6230;52.390;10.256;2024-02-26T05:08:12;7.10;63.40
12329;DHT22;6230;52.390;10.256;2024-02-26T05:10:38;7.00;63.50
12329;DHT22;6230;52.390;10.256;2024-02-26T05:13:08;7.00;63.50
12329;DHT22;6230;52.390;10.256;2024-02-26T05:15:35;7.00;63.60
12329;DHT22;6230;52.390;10.256;2024-02-26T05:18:01;7.00;63.70
12329;DHT22;6230;52.390;10.256;2024-02-26T05:20:26;6.90;63.70
12329;DHT22;6230;52.390;10.256;2024-02-26T05:22:52;6.90;63.70
12329;DHT22;6230;52.390;10.256;2024-02-26T05:25:17;6.80;63.70
12329;DHT22;6230;52.390;10.256;2024-02-26T05:27:44;6.80;63.80
12329;DHT22;6230;52.390;10.256;2024-02-26T05:30:10;6.80;63.90
12329;DHT22;6230;52.390;10.256;2024-02-26T05:32:36;6.80;63.90
12329;DHT22;6230;52.390;10.256;2024-02-26T05:35:02;6.80;63.90
12329;DHT22;6230;52.390;10.256;2024-02-26T05:37:31;6.80;63.90
12329;DHT22;6230;52.390;10.256;2024-02-26T05:39:56;6.80;63.90
12329;DHT22;6230;52.390;10.256;2024-02-26T05:42:22;6.70;63.90
12329;DHT22;6230;52.390;10.256;2024-02-26T05:44:48;6.70;63.90
12329;DHT22;6230;52.390;10.256;2024-02-26T05:47:13;6.70;64.00
12329;DHT22;6230;52.390;10.256;2024-02-26T05:49:39;6.70;64.00
12329;DHT22;6230;52.390;10.256;2024-02-26T05:52:05;6.70;64.00
12329;DHT22;6230;52.390;10.256;2024-02-26T05:54:31;6.70;64.10
12329;DHT22;6230;52.390;10.256;2024-02-26T05:56:57;6.70;64.10
12329;DHT22;6230;52.390;10.256;2024-02-26T05:59:22;6.70;64.10
12329;DHT22;6230;52.390;10.256;2024-02-26T06:01:48;6.70;64.10
12329;DHT22;6230;52.390;10.256;2024-02-26T06:04:13;6.70;64.10
12329;DHT22;6230;52.390;10.256;2024-02-26T06:06:39;6.70;64.10
12329;DHT22;6230;52.390;10.256;2024-02-26T06:09:05;6.70;64.10
12329;DHT22;6230;52.390;10.256;2024-02-26T06:11:30;6.70;64.00
12329;DHT22;6230;52.390;10.256;2024-02-26T06:13:56;6.70;64.00
12329;DHT22;6230;52.390;10.256;2024-02-26T06:16:22;6.80;64.00
12329;DHT22;6230;52.390;10.256;2024-02-26T06:18:47;6.80;64.10
12329;DHT22;6230;52.390;10.256;2024-02-26T06:21:13;6.80;64.00
12329;DHT22;6230;52.390;10.256;2024-02-26T06:23:39;6.80;64.00
12329;DHT22;6230;52.390;10.256;2024-02-26T06:26:05;6.90;64.00
12329;DHT22;6230;52.390;10.256;2024-02-26T06:28:31;6.90;63.90
12329;DHT22;6230;52.390;10.256;2024-02-26T06:30:59;6.90;63.80
12329;DHT22;6230;52.390;10.256;2024-02-26T06:33:24;7.00;63.80
12329;DHT22;6230;52.390;10.256;2024-02-26T06:35:50;7.00;63.80
12329;DHT22;6230;52.390;10.256;2024-02-26T06:38:16;7.00;63.80
12329;DHT22;6230;52.390;10.256;2024-02-26T06:40:43;7.00;63.80
12329;DHT22;6230;52.390;10.256;2024-02-26T06:43:09;7.00;63.80
12329;DHT22;6230;52.390;10.256;2024-02-26T06:45:34;7.00;63.80
12329;DHT22;6230;52.390;10.256;2024-02-26T06:48:00;7.00;63.90
12329;DHT22;6230;52.390;10.256;2024-02-26T06:50:26;7.00;63.90
12329;DHT22;6230;52.390;10.256;2024-02-26T06:52:51;7.00;64.00
12329;DHT22;6230;52.390;10.256;2024-02-26T06:55:17;7.00;64.00
12329;DHT22;6230;52.390;10.256;2024-02-26T06:57:43;7.00;64.00
12329;DHT22;6230;52.390;10.256;2024-02-26T07:00:09;7.00;64.00
12329;DHT22;6230;52.390;10.256;2024-02-26T07:02:39;7.00;64.00
12329;DHT22;6230;52.390;10.256;2024-02-26T07:05:05;7.00;64.80
12329;DHT22;6230;52.390;10.256;2024-02-26T07:07:31;7.00;64.10
12329;DHT22;6230;52.390;10.256;2024-02-26T07:09:56;7.00;64.10
12329;DHT22;6230;52.390;10.256;2024-02-26T07:12:22;7.00;64.10
12329;DHT22;6230;52.390;10.256;2024-02-26T07:14:48;7.00;64.20
12329;DHT22;6230;52.390;10.256;2024-02-26T07:17:14;7.00;64.20
12329;DHT22;6230;52.390;10.256;2024-02-26T07:19:41;7.00;64.20
12329;DHT22;6230;52.390;10.256;2024-02-26T07:22:07;7.00;64.20
12329;DHT22;6230;52.390;10.256;2024-02-26T07:24:32;7.00;64.20
12329;DHT22;6230;52.390;10.256;2024-02-26T07:26:58;7.10;64.40
12329;DHT22;6230;52.390;10.256;2024-02-26T07:29:23;7.10;64.30
12329;DHT22;6230;52.390;10.256;2024-02-26T07:31:49;7.10;64.30
12329;DHT22;6230;52.390;10.256;2024-02-26T07:34:14;7.10;64.30
12329;DHT22;6230;52.390;10.256;2024-02-26T07:36:40;7.10;64.30
12329;DHT22;6230;52.390;10.256;2024-02-26T07:39:06;7.10;64.40
12329;DHT22;6230;52.390;10.256;2024-02-26T07:41:31;7.10;64.50
12329;DHT22;6230;52.390;10.256;2024-02-26T07:43:57;7.10;64.40
12329;DHT22;6230;52.390;10.256;2024-02-26T07:46:22;7.10;64.50
12329;DHT22;6230;52.390;10.256;2024-02-26T07:48:48;7.10;64.50
12329;DHT22;6230;52.390;10.256;2024-02-26T07:51:13;7.10;64.50
12329;DHT22;6230;52.390;10.256;2024-02-26T07:53:39;7.20;64.60
12329;DHT22;6230;52.390;10.256;2024-02-26T07:56:05;7.20;64.60
12329;DHT22;6230;52.390;10.256;2024-02-26T07:58:32;7.20;64.60
12329;DHT22;6230;52.390;10.256;2024-02-26T08:00:58;7.20;64.60
12329;DHT22;6230;52.390;10.256;2024-02-26T08:03:24;7.30;64.60
12329;DHT22;6230;52.390;10.256;2024-02-26T08:05:51;7.30;64.50
12329;DHT22;6230;52.390;10.256;2024-02-26T08:08:17;7.40;64.60
12329;DHT22;6230;52.390;10.256;2024-02-26T08:10:42;7.40;64.60
12329;DHT22;6230;52.390;10.256;2024-02-26T08:13:08;7.40;64.50
12329;DHT22;6230;52.390;10.256;2024-02-26T08:15:35;7.40;64.50
12329;DHT22;6230;52.390;10.256;2024-02-26T08:18:03;7.50;64.70
12329;DHT22;6230;52.390;10.256;2024-02-26T08:20:32;7.50;64.60
12329;DHT22;6230;52.390;10.256;2024-02-26T08:22:58;7.50;64.50
12329;DHT22;6230;52.390;10.256;2024-02-26T08:25:24;7.50;64.60
12329;DHT22;6230;52.390;10.256;2024-02-26T08:27:50;7.50;64.70
12329;DHT22;6230;52.390;10.256;2024-02-26T08:30:16;7.50;64.70
12329;DHT22;6230;52.390;10.256;2024-02-26T08:32:47;7.50;64.80
12329;DHT22;6230;52.390;10.256;2024-02-26T08:35:13;7.60;64.90
12329;DHT22;6230;52.390;10.256;2024-02-26T08:37:38;7.60;64.90
12329;DHT22;6230;52.390;10.256;2024-02-26T08:40:05;7.60;64.80
12329;DHT22;6230;52.390;10.256;2024-02-26T08:42:31;7.60;64.90
12329;DHT22;6230;52.390;10.256;2024-02-26T08:44:56;7.60;64.90
12329;DHT22;6230;52.390;10.256;2024-02-26T08:47:24;7.70;64.90
12329;DHT22;6230;52.390;10.256;2024-02-26T08:49:49;7.70;64.90
12329;DHT22;6230;52.390;10.256;2024-02-26T08:52:15;7.70;64.80
12329;DHT22;6230;52.390;10.256;2024-02-26T08:54:41;7.70;64.90
12329;DHT22;6230;52.390;10.256;2024-02-26T08:57:06;7.80;65.00
12329;DHT22;6230;52.390;10.256;2024-02-26T08:59:32;7.80;65.00
12329;DHT22;6230;52.390;10.256;2024-02-26T09:01:57;7.80;65.00
12329;DHT22;6230;52.390;10.256;2024-02-26T09:04:23;7.90;65.00
12329;DHT22;6230;52.390;10.256;2024-02-26T09:06:48;7.90;65.00
12329;DHT22;6230;52.390;10.256;2024-02-26T09:09:14;7.90;65.00
12329;DHT22;6230;52.390;10.256;2024-02-26T09:11:40;7.90;65.00
12329;DHT22;6230;52.390;10.256;2024-02-26T09:14:05;8.00;65.00
12329;DHT22;6230;52.390;10.256;2024-02-26T09:16:31;8.00;65.00
12329;DHT22;6230;52.390;10.256;2024-02-26T09:18:57;8.00;65.00
12329;DHT22;6230;52.390;10.256;2024-02-26T09:21:23;8.10;65.00
12329;DHT22;6230;52.390;10.256;2024-02-26T09:23:50;8.10;65.00
12329;DHT22;6230;52.390;10.256;2024-02-26T09:26:16;8.20;65.10
12329;DHT22;6230;52.390;10.256;2024-02-26T09:28:42;8.20;65.00
12329;DHT22;6230;52.390;10.256;2024-02-26T09:31:08;8.20;64.90
12329;DHT22;6230;52.390;10.256;2024-02-26T09:33:34;8.30;65.00
12329;DHT22;6230;52.390;10.256;2024-02-26T09:35:59;8.30;65.00
12329;DHT22;6230;52.390;10.256;2024-02-26T09:38:28;8.30;65.10
12329;DHT22;6230;52.390;10.256;2024-02-26T09:40:57;8.30;65.10
12329;DHT22;6230;52.390;10.256;2024-02-26T09:43:23;8.40;65.10
12329;DHT22;6230;52.390;10.256;2024-02-26T09:45:53;8.40;65.20
12329;DHT22;6230;52.390;10.256;2024-02-26T09:48:19;8.40;65.20
12329;DHT22;6230;52.390;10.256;2024-02-26T09:50:45;8.50;65.30
12329;DHT22;6230;52.390;10.256;2024-02-26T09:53:12;8.50;65.30
12329;DHT22;6230;52.390;10.256;2024-02-26T09:55:41;8.50;66.00
12329;DHT22;6230;52.390;10.256;2024-02-26T09:58:07;8.60;65.40
12329;DHT22;6230;52.390;10.256;2024-02-26T10:00:36;8.60;65.30
12329;DHT22;6230;52.390;10.256;2024-02-26T10:03:04;8.60;65.30
12329;DHT22;6230;52.390;10.256;2024-02-26T10:05:31;8.70;65.40
12329;DHT22;6230;52.390;10.256;2024-02-26T10:07:57;8.70;65.30
12329;DHT22;6230;52.390;10.256;2024-02-26T10:10:24;8.80;65.40
12329;DHT22;6230;52.390;10.256;2024-02-26T10:12:49;8.80;65.40
12329;DHT22;6230;52.390;10.256;2024-02-26T10:15:15;8.80;65.40
12329;DHT22;6230;52.390;10.256;2024-02-26T10:17:41;8.80;65.50
12329;DHT22;6230;52.390;10.256;2024-02-26T10:20:13;8.80;65.50
12329;DHT22;6230;52.390;10.256;2024-02-26T10:22:43;8.80;65.50
12329;DHT22;6230;52.390;10.256;2024-02-26T10:25:09;8.80;65.50
12329;DHT22;6230;52.390;10.256;2024-02-26T10:27:35;8.80;65.50
12329;DHT22;6230;52.390;10.256;2024-02-26T10:30:26;8.90;65.50
12329;DHT22;6230;52.390;10.256;2024-02-26T10:32:52;8.90;65.60
12329;DHT22;6230;52.390;10.256;2024-02-26T10:35:18;8.90;65.50
12329;DHT22;6230;52.390;10.256;2024-02-26T10:37:46;8.90;65.50
12329;DHT22;6230;52.390;10.256;2024-02-26T10:40:13;9.00;65.60
12329;DHT22;6230;52.390;10.256;2024-02-26T10:42:39;9.00;65.60
12329;DHT22;6230;52.390;10.256;2024-02-26T10:45:12;9.10;65.60
12329;DHT22;6230;52.390;10.256;2024-02-26T10:47:37;9.10;65.50
12329;DHT22;6230;52.390;10.256;2024-02-26T10:50:05;9.20;65.50
12329;DHT22;6230;52.390;10.256;2024-02-26T10:52:35;9.30;65.50
12329;DHT22;6230;52.390;10.256;2024-02-26T10:55:02;9.30;65.40
12329;DHT22;6230;52.390;10.256;2024-02-26T10:57:32;9.40;65.40
12329;DHT22;6230;52.390;10.256;2024-02-26T10:59:59;9.40;65.40
12329;DHT22;6230;52.390;10.256;2024-02-26T11:02:26;9.40;65.40
12329;DHT22;6230;52.390;10.256;2024-02-26T11:04:52;9.50;65.40
12329;DHT22;6230;52.390;10.256;2024-02-26T11:07:19;9.50;65.30
12329;DHT22;6230;52.390;10.256;2024-02-26T11:09:46;9.50;65.30
12329;DHT22;6230;52.390;10.256;2024-02-26T11:12:17;9.50;65.30
12329;DHT22;6230;52.390;10.256;2024-02-26T11:14:46;9.60;65.40
12329;DHT22;6230;52.390;10.256;2024-02-26T11:17:13;9.60;65.40
12329;DHT22;6230;52.390;10.256;2024-02-26T11:19:39;9.60;65.40
12329;DHT22;6230;52.390;10.256;2024-02-26T11:22:07;9.70;65.40
12329;DHT22;6230;52.390;10.256;2024-02-26T11:24:32;9.70;65.40
12329;DHT22;6230;52.390;10.256;2024-02-26T11:27:00;9.70;65.40
12329;DHT22;6230;52.390;10.256;2024-02-26T11:29:32;9.80;65.40
12329;DHT22;6230;52.390;10.256;2024-02-26T11:32:00;9.80;65.30
12329;DHT22;6230;52.390;10.256;2024-02-26T11:34:26;9.80;65.30
12329;DHT22;6230;52.390;10.256;2024-02-26T11:36:52;9.90;65.40
12329;DHT22;6230;52.390;10.256;2024-02-26T11:39:18;9.90;65.30
12329;DHT22;6230;52.390;10.256;2024-02-26T11:41:43;9.90;65.40
12329;DHT22;6230;52.390;10.256;2024-02-26T11:44:09;10.00;65.40
12329;DHT22;6230;52.390;10.256;2024-02-26T11:46:42;10.00;65.40
12329;DHT22;6230;52.390;10.256;2024-02-26T11:51:54;10.10;65.30
12329;DHT22;6230;52.390;10.256;2024-02-26T11:54:51;10.10;65.30
12329;DHT22;6230;52.390;10.256;2024-02-26T12:02:44;10.20;65.20
12329;DHT22;6230;52.390;10.256;2024-02-26T12:05:32;10.20;65.20
12329;DHT22;6230;52.390;10.256;2024-02-26T12:08:05;10.20;65.20
12329;DHT22;6230;52.390;10.256;2024-02-26T12:10:33;10.30;65.30
12329;DHT22;6230;52.390;10.256;2024-02-26T12:13:10;10.30;65.30
12329;DHT22;6230;52.390;10.256;2024-02-26T12:15:44;10.30;65.30
12329;DHT22;6230;52.390;10.256;2024-02-26T12:18:17;10.40;65.30
12329;DHT22;6230;52.390;10.256;2024-02-26T12:20:43;10.40;65.30
12329;DHT22;6230;52.390;10.256;2024-02-26T12:23:16;10.40;65.20
12329;DHT22;6230;52.390;10.256;2024-02-26T12:25:45;10.40;65.20
12329;DHT22;6230;52.390;10.256;2024-02-26T12:28:14;10.50;65.20
12329;DHT22;6230;52.390;10.256;2024-02-26T12:30:39;10.50;65.10
12329;DHT22;6230;52.390;10.256;2024-02-26T12:33:05;10.60;65.10
12329;DHT22;6230;52.390;10.256;2024-02-26T12:35:34;10.60;65.00
12329;DHT22;6230;52.390;10.256;2024-02-26T12:38:00;10.60;65.00
12329;DHT22;6230;52.390;10.256;2024-02-26T12:40:26;10.70;65.10
12329;DHT22;6230;52.390;10.256;2024-02-26T12:42:54;10.70;65.10
12329;DHT22;6230;52.390;10.256;2024-02-26T12:45:20;10.70;65.00
12329;DHT22;6230;52.390;10.256;2024-02-26T12:47:46;10.80;65.00
12329;DHT22;6230;52.390;10.256;2024-02-26T12:50:14;10.80;64.90
12329;DHT22;6230;52.390;10.256;2024-02-26T12:52:43;10.80;64.90
12329;DHT22;6230;52.390;10.256;2024-02-26T12:55:11;10.90;65.00
12329;DHT22;6230;52.390;10.256;2024-02-26T12:57:39;10.90;64.90
12329;DHT22;6230;52.390;10.256;2024-02-26T13:00:07;10.90;64.90
12329;DHT22;6230;52.390;10.256;2024-02-26T13:02:37;10.90;64.90
12329;DHT22;6230;52.390;10.256;2024-02-26T13:05:07;10.90;64.90
12329;DHT22;6230;52.390;10.256;2024-02-26T13:07:34;10.90;64.90
12329;DHT22;6230;52.390;10.256;2024-02-26T13:10:00;10.90;65.00
12329;DHT22;6230;52.390;10.256;2024-02-26T13:12:26;10.90;64.90
12329;DHT22;6230;52.390;10.256;2024-02-26T13:14:59;10.90;65.00
12329;DHT22;6230;52.390;10.256;2024-02-26T13:17:25;11.00;65.10
12329;DHT22;6230;52.390;10.256;2024-02-26T13:19:53;11.00;65.00
12329;DHT22;6230;52.390;10.256;2024-02-26T13:22:21;11.00;65.00
12329;DHT22;6230;52.390;10.256;2024-02-26T13:24:54;11.00;65.00
12329;DHT22;6230;52.390;10.256;2024-02-26T13:27:23;11.00;65.00
12329;DHT22;6230;52.390;10.256;2024-02-26T13:30:19;11.00;65.00
12329;DHT22;6230;52.390;10.256;2024-02-26T13:32:45;11.00;65.80
12329;DHT22;6230;52.390;10.256;2024-02-26T13:35:13;11.10;65.00
12329;DHT22;6230;52.390;10.256;2024-02-26T13:37:39;11.10;65.10
12329;DHT22;6230;52.390;10.256;2024-02-26T13:40:09;11.10;65.10
12329;DHT22;6230;52.390;10.256;2024-02-26T13:42:38;11.10;65.10
12329;DHT22;6230;52.390;10.256;2024-02-26T13:45:05;11.10;65.00
12329;DHT22;6230;52.390;10.256;2024-02-26T13:47:35;11.10;65.00
12329;DHT22;6230;52.390;10.256;2024-02-26T13:50:01;11.10;65.00
12329;DHT22;6230;52.390;10.256;2024-02-26T13:52:27;11.10;65.00
12329;DHT22;6230;52.390;10.256;2024-02-26T13:54:53;11.20;65.10
12329;DHT22;6230;52.390;10.256;2024-02-26T13:57:21;11.10;65.10
12329;DHT22;6230;52.390;10.256;2024-02-26T13:59:47;11.10;65.10
12329;DHT22;6230;52.390;10.256;2024-02-26T14:02:13;11.10;65.10
12329;DHT22;6230;52.390;10.256;2024-02-26T14:04:39;11.10;65.20
12329;DHT22;6230;52.390;10.256;2024-02-26T14:07:04;11.10;65.20
12329;DHT22;6230;52.390;10.256;2024-02-26T14:09:30;11.10;65.10
12329;DHT22;6230;52.390;10.256;2024-02-26T14:11:57;11.10;65.10
12329;DHT22;6230;52.390;10.256;2024-02-26T14:14:24;11.10;65.20
12329;DHT22;6230;52.390;10.256;2024-02-26T14:16:50;11.10;65.20
12329;DHT22;6230;52.390;10.256;2024-02-26T14:19:16;11.00;65.10
12329;DHT22;6230;52.390;10.256;2024-02-26T14:21:42;11.00;65.10
12329;DHT22;6230;52.390;10.256;2024-02-26T14:24:07;11.00;65.20
12329;DHT22;6230;52.390;10.256;2024-02-26T14:26:34;11.00;65.10
12329;DHT22;6230;52.390;10.256;2024-02-26T14:28:59;11.00;65.20
12329;DHT22;6230;52.390;10.256;2024-02-26T14:31:25;11.00;65.20
12329;DHT22;6230;52.390;10.256;2024-02-26T14:33:51;11.00;65.20
12329;DHT22;6230;52.390;10.256;2024-02-26T14:36:20;11.00;65.20
12329;DHT22;6230;52.390;10.256;2024-02-26T14:38:46;11.00;65.20
12329;DHT22;6230;52.390;10.256;2024-02-26T14:41:12;11.00;65.20
12329;DHT22;6230;52.390;10.256;2024-02-26T14:43:38;11.00;65.20
12329;DHT22;6230;52.390;10.256;2024-02-26T14:46:03;11.00;66.00
12329;DHT22;6230;52.390;10.256;2024-02-26T14:48:30;11.00;65.20
12329;DHT22;6230;52.390;10.256;2024-02-26T14:50:57;11.00;65.20
12329;DHT22;6230;52.390;10.256;2024-02-26T14:53:22;11.00;65.20
12329;DHT22;6230;52.390;10.256;2024-02-26T14:55:48;11.00;65.30
12329;DHT22;6230;52.390;10.256;2024-02-26T14:58:14;11.00;65.20
12329;DHT22;6230;52.390;10.256;2024-02-26T15:00:39;11.00;65.20
12329;DHT22;6230;52.390;10.256;2024-02-26T15:03:05;11.00;65.20
12329;DHT22;6230;52.390;10.256;2024-02-26T15:05:32;11.00;65.20
12329;DHT22;6230;52.390;10.256;2024-02-26T15:07:58;11.00;65.20
12329;DHT22;6230;52.390;10.256;2024-02-26T15:10:25;11.00;65.30
12329;DHT22;6230;52.390;10.256;2024-02-26T15:12:50;11.00;65.20
12329;DHT22;6230;52.390;10.256;2024-02-26T15:15:22;11.00;65.20
12329;DHT22;6230;52.390;10.256;2024-02-26T15:17:49;11.00;65.30
12329;DHT22;6230;52.390;10.256;2024-02-26T15:20:15;11.00;65.20
12329;DHT22;6230;52.390;10.256;2024-02-26T15:22:41;11.00;66.00
12329;DHT22;6230;52.390;10.256;2024-02-26T15:25:08;11.00;65.30
12329;DHT22;6230;52.390;10.256;2024-02-26T15:27:33;11.00;65.20
12329;DHT22;6230;52.390;10.256;2024-02-26T15:30:00;11.00;65.10
12329;DHT22;6230;52.390;10.256;2024-02-26T15:32:26;11.00;65.10
12329;DHT22;6230;52.390;10.256;2024-02-26T15:34:55;11.00;65.20
12329;DHT22;6230;52.390;10.256;2024-02-26T15:37:21;11.00;65.10
12329;DHT22;6230;52.390;10.256;2024-02-26T15:39:47;11.00;65.10
12329;DHT22;6230;52.390;10.256;2024-02-26T15:42:13;11.00;65.00
12329;DHT22;6230;52.390;10.256;2024-02-26T15:44:39;11.00;65.00
12329;DHT22;6230;52.390;10.256;2024-02-26T15:47:05;11.00;65.00